KSEA/SEA METAR and TAF weather

Enter ICAO airport designator
Station Type Date Time Source
KSEA METAR 2019/09/21 04:53 UTC NOAA

KSEA 210453Z 12006KT 10SM SCT060 17/12 A3013 RMK AO2 SLP208 T01720122


Station Type Date Time Source
KSEA Decoded METAR 2019/09/21 04:53 UTC NOAA

SEATTLE-TACOMA INTERNATIONAL AIRPORT , WA, United States (KSEA) 47-27N 122-19W 136M
Sep 21, 2019 - 12:53 AM EDT / 2019.09.21 0453 UTC
Wind: from the ESE (120 degrees) at 7 MPH (6 KT):0
Visibility: 10 mile(s):0
Sky conditions: partly cloudy
Temperature: 63.0 F (17.2 C)
Dew Point: 54.0 F (12.2 C)
Relative Humidity: 72%
Pressure (altimeter): 30.13 in. Hg (1020 hPa)
ob: KSEA 210453Z 12006KT 10SM SCT060 17/12 A3013 RMK AO2 SLP208 T01720122
cycle: 5

Station Type Date Time Source
KSEA TAF 2019/09/21 03:06 UTC NOAA

TAF
AMD KSEA 210303Z 2103/2206 VRB04KT P6SM FEW030 SCT060 SCT250
FM211100 18004KT P6SM OVC006
FM211800 22006KT P6SM SCT008 BKN020
FM212000 22006KT P6SM SCT050 BKN200

Example: see airport list